Time;durP1;ratioP1;P1;durP2;ratioP2;P2;SDS_P1;SDS_P2;PMS_P1;PMS_P2;Temp;Humidity;BMP_temperature;BMP_pressure;BME280_temperature;BME280_humidity;BME280_pressure;Samples;Min_cycle;Max_cycle;Signal;HPM_P1;HPM_P2
2021/12/21 00:01:22;;;;;;;13.97;11.47;;;;;;;-1.95;69.13;99483.66;4159408;28;20233;-48
2021/12/21 00:03:24;;;;;;;26.33;11.50;;;;;;;-2.01;68.92;99487.75;4158840;28;20660;-49
2021/12/21 00:05:29;;;;;;;17.03;11.83;;;;;;;-2.05;69.00;99486.38;4145029;28;20328;-47
2021/12/21 00:07:30;;;;;;;13.60;12.20;;;;;;;-2.11;68.99;99491.47;4156708;28;20224;-47
2021/12/21 00:09:32;;;;;;;13.97;12.67;;;;;;;-2.13;69.16;99493.47;4158143;28;20229;-48
2021/12/21 00:11:35;;;;;;;16.17;12.07;;;;;;;-2.18;69.38;99490.38;4143721;28;20235;-48
2021/12/21 00:13:54;;;;;;;21.77;12.17;;;;;;;-2.21;69.24;99488.00;4145124;28;20237;-47
2021/12/21 00:16:14;;;;;;;12.33;10.97;;;;;;;-2.15;69.41;99490.09;4142281;28;20742;-48
2021/12/21 00:19:06;;;;;;;14.00;8.90;;;;;;;-2.11;69.36;99486.97;4158508;28;20209;-46
2021/12/21 00:24:54;;;;;;;11.90;9.20;;;;;;;-2.24;69.67;99473.06;4144903;28;20673;-48
2021/12/21 00:26:56;;;;;;;10.37;9.43;;;;;;;-2.24;69.53;99474.88;4155439;28;20659;-47
2021/12/21 00:29:00;;;;;;;11.43;8.20;;;;;;;-2.25;69.70;99473.19;4143758;28;20208;-47
2021/12/21 00:31:03;;;;;;;11.17;7.80;;;;;;;-2.26;69.64;99466.16;4177314;28;20721;-47
2021/12/21 00:33:05;;;;;;;12.83;6.70;;;;;;;-2.27;69.81;99470.66;4144933;28;20212;-47
2021/12/21 00:35:07;;;;;;;11.60;6.53;;;;;;;-2.29;70.10;99469.09;4176157;28;20339;-46
2021/12/21 00:37:08;;;;;;;10.33;7.07;;;;;;;-2.28;70.30;99470.81;4161738;28;20293;-49
2021/12/21 00:39:14;;;;;;;10.57;7.57;;;;;;;-2.28;69.56;99460.94;4159770;28;20216;-48
2021/12/21 00:41:17;;;;;;;8.77;7.67;;;;;;;-2.30;69.67;99459.38;4158150;28;20297;-47
2021/12/21 00:43:19;;;;;;;8.27;7.10;;;;;;;-2.33;69.65;99460.50;4154984;28;20212;-47
2021/12/21 00:45:20;;;;;;;8.37;7.43;;;;;;;-2.40;69.69;99453.22;4159220;28;20331;-47
2021/12/21 00:47:22;;;;;;;8.07;7.27;;;;;;;-2.38;69.89;99457.47;4160166;28;20216;-47
2021/12/21 00:49:26;;;;;;;7.50;6.43;;;;;;;-2.39;69.98;99454.91;4176252;28;20203;-48
2021/12/21 00:51:28;;;;;;;13.17;6.80;;;;;;;-2.40;69.38;99453.22;4158611;28;20201;-48
2021/12/21 00:53:30;;;;;;;9.50;5.57;;;;;;;-2.42;69.59;99449.84;4175725;28;20200;-47
2021/12/21 00:55:32;;;;;;;12.33;6.23;;;;;;;-2.44;69.77;99449.13;4158473;28;20343;-47
2021/12/21 00:57:33;;;;;;;8.17;7.20;;;;;;;-2.48;69.78;99450.44;4173079;28;20205;-47
2021/12/21 00:59:35;;;;;;;9.73;6.57;;;;;;;-2.56;69.59;99444.94;4158138;28;20248;-48
2021/12/21 01:01:40;;;;;;;11.03;8.27;;;;;;;-2.58;70.13;99438.88;4159889;28;20201;-48
2021/12/21 01:03:47;;;;;;;9.47;6.97;;;;;;;-2.59;69.75;99443.41;4145187;28;20218;-47
2021/12/21 01:06:14;;;;;;;10.33;7.03;;;;;;;-2.57;70.44;99437.91;4143330;28;20225;-49
2021/12/21 01:08:21;;;;;;;7.63;6.80;;;;;;;-2.51;70.38;99434.63;4142901;28;20206;-48
2021/12/21 01:17:15;;;;;;;8.07;7.23;;;;;;;-2.53;69.82;99440.13;4161275;28;20236;-48
2021/12/21 01:19:23;;;;;;;7.17;6.47;;;;;;;-2.57;69.88;99440.56;4142275;28;20215;-50
2021/12/21 01:21:29;;;;;;;9.87;9.00;;;;;;;-2.57;70.14;99429.88;4143360;28;20229;-47
2021/12/21 01:30:57;;;;;;;9.07;6.87;;;;;;;-2.55;69.61;99428.72;4118196;28;20643;-47
2021/12/21 01:33:19;;;;;;;7.87;7.10;;;;;;;-2.52;69.96;99438.31;4143497;28;20236;-48
2021/12/21 01:35:31;;;;;;;9.47;7.27;;;;;;;-2.55;69.41;99434.09;4157099;28;20835;-46
2021/12/21 01:37:54;;;;;;;7.70;6.90;;;;;;;-2.56;69.77;99440.44;4160001;28;20212;-46
2021/12/21 01:42:14;;;;;;;10.13;7.93;;;;;;;-2.61;69.32;99440.03;4158711;28;20593;-48
2021/12/21 01:51:20;;;;;;;16.13;11.57;;;;;;;-2.70;69.64;99440.03;4160193;28;20193;-47
2021/12/21 01:53:22;;;;;;;25.50;13.47;;;;;;;-2.71;69.33;99443.72;4174457;28;20200;-47
2021/12/21 01:55:24;;;;;;;17.90;12.23;;;;;;;-2.71;69.67;99433.00;4160741;28;20278;-47
2021/12/21 01:57:25;;;;;;;23.33;13.03;;;;;;;-2.81;69.51;99433.03;4158868;28;20201;-48
2021/12/21 01:59:27;;;;;;;30.50;13.40;;;;;;;-2.83;69.33;99439.50;4139576;28;20723;-47
2021/12/21 02:01:29;;;;;;;21.90;13.70;;;;;;;-2.91;69.64;99426.00;4154598;28;20201;-47
2021/12/21 02:03:31;;;;;;;18.20;12.60;;;;;;;-2.97;69.86;99432.78;4122080;28;20218;-48
2021/12/21 02:05:33;;;;;;;16.17;11.70;;;;;;;-2.94;69.85;99426.31;4157044;28;20235;-48
2021/12/21 02:07:35;;;;;;;13.83;10.37;;;;;;;-2.89;70.24;99430.22;4144315;28;20217;-48
2021/12/21 02:09:37;;;;;;;19.03;12.33;;;;;;;-2.88;70.13;99431.91;4155716;28;20201;-49
2021/12/21 02:11:39;;;;;;;12.60;11.07;;;;;;;-2.89;70.28;99418.66;4140032;28;20221;-47
2021/12/21 02:13:46;;;;;;;11.23;10.33;;;;;;;-2.89;69.94;99426.69;4157610;28;20278;-48
2021/12/21 02:15:47;;;;;;;12.30;9.60;;;;;;;-2.91;69.63;99431.34;4169759;28;20235;-48
2021/12/21 02:22:17;;;;;;;12.43;9.97;;;;;;;-2.99;70.00;99425.88;4160357;28;20630;-47
2021/12/21 02:24:25;;;;;;;10.83;9.80;;;;;;;-3.00;70.00;99421.53;4141423;28;20237;-47
2021/12/21 02:26:48;;;;;;;9.97;9.07;;;;;;;-3.01;70.15;99426.00;4140627;28;20232;-49
2021/12/21 02:31:10;;;;;;;11.67;10.47;;;;;;;-3.02;70.58;99418.97;4160968;28;20232;-47
2021/12/21 02:33:13;;;;;;;15.43;8.20;;;;;;;-3.02;70.68;99412.81;4139922;28;20225;-47
2021/12/21 02:35:15;;;;;;;9.40;8.47;;;;;;;-2.97;70.72;99410.50;4143875;28;20344;-47
2021/12/21 02:37:17;;;;;;;11.23;9.37;;;;;;;-2.94;70.60;99413.75;4145022;28;20289;-48
2021/12/21 02:39:19;;;;;;;13.03;9.17;;;;;;;-2.91;71.01;99409.94;4174765;28;20197;-48
2021/12/21 02:41:21;;;;;;;17.77;9.23;;;;;;;-2.87;70.54;99412.19;4157783;28;20220;-49
2021/12/21 02:43:23;;;;;;;10.80;9.03;;;;;;;-2.89;70.50;99413.31;4141464;28;20648;-49
2021/12/21 02:45:25;;;;;;;10.17;9.17;;;;;;;-2.92;70.78;99408.25;4144698;28;20233;-47
2021/12/21 02:47:26;;;;;;;9.70;8.80;;;;;;;-2.92;70.58;99410.94;4147519;28;20210;-47
2021/12/21 02:49:28;;;;;;;14.30;8.77;;;;;;;-3.00;70.12;99411.63;4144741;28;20267;-48
2021/12/21 02:51:30;;;;;;;12.00;9.83;;;;;;;-3.08;70.14;99416.03;4154300;28;20232;-48
2021/12/21 02:53:32;;;;;;;9.77;8.87;;;;;;;-3.08;70.11;99413.38;4155878;28;20232;-53
2021/12/21 02:55:34;;;;;;;11.97;9.00;;;;;;;-3.10;70.32;99418.00;4141811;28;20229;-48
2021/12/21 02:57:38;;;;;;;13.53;10.27;;;;;;;-3.10;69.88;99409.97;4142634;28;20213;-47
2021/12/21 02:59:42;;;;;;;11.93;7.87;;;;;;;-3.12;70.08;99411.94;4159209;28;20215;-47
2021/12/21 03:01:44;;;;;;;12.27;8.80;;;;;;;-3.15;70.07;99406.91;4155638;28;20271;-49
2021/12/21 03:03:46;;;;;;;10.30;9.10;;;;;;;-3.17;69.88;99408.84;4157108;28;20574;-47
2021/12/21 03:05:52;;;;;;;13.40;8.43;;;;;;;-3.21;70.00;99392.22;4141672;28;20232;-47
2021/12/21 03:10:14;;;;;;;9.30;8.50;;;;;;;-3.21;69.79;99394.09;4142677;28;20224;-47
2021/12/21 03:14:25;;;;;;;7.40;6.73;;;;;;;-3.23;69.63;99399.56;4159739;28;20242;-49
2021/12/21 03:16:26;;;;;;;9.77;8.87;;;;;;;-3.23;70.11;99393.34;4142130;28;20257;-48
2021/12/21 03:18:28;;;;;;;11.73;7.90;;;;;;;-3.23;69.86;99401.38;4137318;28;20225;-47
2021/12/21 03:20:30;;;;;;;8.60;7.70;;;;;;;-3.23;69.95;99393.34;4141773;28;20248;-47
2021/12/21 03:22:31;;;;;;;10.13;8.43;;;;;;;-3.23;69.92;99393.34;4156768;28;20772;-47
2021/12/21 03:24:34;;;;;;;7.97;7.20;;;;;;;-3.22;70.03;99387.03;4174829;28;20654;-46
2021/12/21 03:26:37;;;;;;;9.67;8.90;;;;;;;-3.21;69.49;99391.41;4153962;28;20252;-46
2021/12/21 03:28:39;;;;;;;12.30;7.77;;;;;;;-3.22;69.71;99389.69;4158777;28;20205;-47
2021/12/21 03:30:41;;;;;;;13.40;7.77;;;;;;;-3.21;69.40;99386.06;4155869;28;20209;-46
2021/12/21 03:32:43;;;;;;;9.17;8.03;;;;;;;-3.21;69.45;99391.41;4138926;28;20236;-47
2021/12/21 03:34:45;;;;;;;10.93;7.60;;;;;;;-3.23;69.78;99385.34;4142194;28;20570;-46
2021/12/21 03:36:47;;;;;;;10.53;8.80;;;;;;;-3.24;69.54;99387.19;4144609;28;20243;-47
2021/12/21 03:39:03;;;;;;;8.23;7.40;;;;;;;-3.27;69.26;99381.28;4146409;28;20583;-47
2021/12/21 03:41:11;;;;;;;8.50;6.53;;;;;;;-3.35;69.39;99389.16;4145207;28;20220;-47
2021/12/21 03:43:13;;;;;;;11.27;7.63;;;;;;;-3.37;69.23;99388.44;4144058;28;20260;-47
2021/12/21 03:45:15;;;;;;;13.67;7.60;;;;;;;-3.36;69.55;99388.31;4158236;28;21069;-47
2021/12/21 03:47:17;;;;;;;11.07;8.97;;;;;;;-3.47;69.63;99391.13;4163322;28;20287;-46
2021/12/21 03:51:34;;;;;;;8.50;7.33;;;;;;;-3.46;69.52;99391.97;4161096;28;20235;-47
2021/12/21 03:53:37;;;;;;;8.53;7.57;;;;;;;-3.40;69.67;99388.75;4142543;28;20210;-47
2021/12/21 03:55:38;;;;;;;7.77;6.70;;;;;;;-3.44;69.20;99395.34;4161085;28;20640;-47
2021/12/21 03:57:40;;;;;;;8.13;6.73;;;;;;;-3.48;69.63;99384.09;4155649;28;20668;-46
2021/12/21 03:59:44;;;;;;;8.80;7.07;;;;;;;-3.52;69.24;99387.19;4159616;28;20279;-47
2021/12/21 04:01:46;;;;;;;8.90;8.10;;;;;;;-3.52;69.52;99381.84;4176341;28;20229;-47
2021/12/21 04:03:48;;;;;;;10.47;8.47;;;;;;;-3.52;69.65;99381.84;4160058;28;20584;-46
2021/12/21 04:05:50;;;;;;;7.57;6.80;;;;;;;-3.55;69.50;99387.50;4141764;28;20279;-47
2021/12/21 04:07:51;;;;;;;9.53;7.17;;;;;;;-3.59;69.45;99381.56;4174336;28;20330;-47
2021/12/21 04:09:54;;;;;;;9.37;8.17;;;;;;;-3.62;69.53;99387.19;4162160;28;20205;-46
2021/12/21 04:11:55;;;;;;;11.27;8.63;;;;;;;-3.64;69.35;99382.97;4176331;28;20653;-47
2021/12/21 04:13:58;;;;;;;10.40;7.50;;;;;;;-3.62;69.79;99383.66;4143901;28;20205;-47
2021/12/21 04:16:03;;;;;;;10.13;8.90;;;;;;;-3.65;69.67;99375.94;4142912;28;20769;-47
2021/12/21 04:18:06;;;;;;;8.70;7.83;;;;;;;-3.67;69.56;99383.25;4140730;28;20635;-47
2021/12/21 04:20:08;;;;;;;8.10;6.50;;;;;;;-3.70;69.71;99379.03;4145069;28;20224;-46
2021/12/21 04:22:10;;;;;;;8.23;7.47;;;;;;;-3.72;69.50;99370.31;4175935;28;20208;-46
2021/12/21 04:24:12;;;;;;;9.30;8.43;;;;;;;-3.70;69.59;99378.16;4144405;28;20205;-47
2021/12/21 04:26:15;;;;;;;9.70;8.07;;;;;;;-3.71;69.56;99379.16;4140123;28;20257;-46
2021/12/21 04:28:16;;;;;;;12.13;9.10;;;;;;;-3.72;69.84;99380.16;4175097;28;20215;-46
2021/12/21 04:30:18;;;;;;;7.33;6.63;;;;;;;-3.80;69.74;99372.81;4171351;28;20200;-48
2021/12/21 04:32:20;;;;;;;11.53;8.47;;;;;;;-3.82;69.60;99373.94;4143724;28;20201;-47
2021/12/21 04:34:22;;;;;;;13.63;8.30;;;;;;;-3.83;69.55;99380.28;4161392;28;20236;-47
2021/12/21 04:36:23;;;;;;;10.73;6.83;;;;;;;-3.83;69.93;99366.91;4143905;28;20228;-47
2021/12/21 04:38:30;;;;;;;9.27;7.93;;;;;;;-3.84;69.37;99370.56;4160106;28;20229;-47
2021/12/21 04:40:45;;;;;;;8.17;7.37;;;;;;;-3.86;69.62;99367.19;4155980;28;20217;-47
2021/12/21 04:42:47;;;;;;;7.70;7.07;;;;;;;-3.84;69.59;99378.59;4174133;28;20616;-47
2021/12/21 04:44:49;;;;;;;8.90;7.57;;;;;;;-3.83;69.33;99377.59;4160602;28;20213;-47
2021/12/21 04:46:51;;;;;;;7.30;6.50;;;;;;;-3.88;69.16;99379.88;4143908;28;21051;-48
2021/12/21 04:48:53;;;;;;;8.77;6.87;;;;;;;-3.93;69.36;99368.75;4144531;28;20300;-47
2021/12/21 04:50:55;;;;;;;6.63;6.03;;;;;;;-3.94;69.64;99375.06;4162509;28;20197;-48
2021/12/21 04:52:57;;;;;;;9.00;8.13;;;;;;;-3.96;69.84;99371.66;4177699;28;20713;-47
2021/12/21 04:54:58;;;;;;;7.73;6.63;;;;;;;-3.99;69.99;99366.63;4142067;28;20213;-47
2021/12/21 04:57:00;;;;;;;10.70;6.87;;;;;;;-3.98;69.71;99369.16;4141581;28;20217;-47
2021/12/21 04:59:02;;;;;;;7.40;6.87;;;;;;;-3.93;69.68;99368.75;4159547;28;20976;-47
2021/12/21 05:01:04;;;;;;;8.10;7.40;;;;;;;-3.90;69.71;99360.44;4143156;28;20698;-47
2021/12/21 05:03:07;;;;;;;8.53;7.83;;;;;;;-3.91;69.35;99366.75;4141424;28;20320;-47
2021/12/21 05:05:09;;;;;;;8.43;7.37;;;;;;;-3.96;69.53;99369.00;4171250;28;20217;-47
2021/12/21 05:07:12;;;;;;;10.50;7.07;;;;;;;-3.95;69.37;99368.03;4158091;28;20217;-47
2021/12/21 05:09:23;;;;;;;8.57;7.67;;;;;;;-3.93;69.25;99363.41;4173874;28;20720;-47
2021/12/21 05:11:32;;;;;;;9.97;7.50;;;;;;;-3.90;69.58;99363.09;4160885;28;20254;-46
2021/12/21 05:13:36;;;;;;;7.13;6.50;;;;;;;-3.88;69.55;99371.84;4157326;28;20296;-47
2021/12/21 05:15:38;;;;;;;8.00;7.30;;;;;;;-3.77;69.61;99377.03;4159324;28;20634;-46
2021/12/21 05:17:40;;;;;;;10.40;7.27;;;;;;;-3.87;69.49;99376.22;4159081;28;20209;-47
2021/12/21 05:19:42;;;;;;;7.23;6.50;;;;;;;-3.94;69.42;99364.38;4143734;28;20285;-47
2021/12/21 05:21:43;;;;;;;6.37;5.83;;;;;;;-3.95;69.62;99373.38;4174979;28;20255;-46
2021/12/21 05:23:45;;;;;;;7.30;6.70;;;;;;;-3.94;69.71;99367.88;4143678;28;20197;-46
2021/12/21 05:25:47;;;;;;;8.13;7.33;;;;;;;-3.96;69.67;99360.97;4172510;28;20677;-46
2021/12/21 05:27:49;;;;;;;9.63;7.83;;;;;;;-3.95;69.53;99368.03;4143845;28;21210;-46
2021/12/21 05:29:51;;;;;;;8.37;6.50;;;;;;;-3.98;69.46;99368.31;4160496;28;20236;-47
2021/12/21 05:31:53;;;;;;;8.60;7.87;;;;;;;-3.97;69.51;99364.63;4142699;28;20248;-48
2021/12/21 05:33:59;;;;;;;7.50;6.80;;;;;;;-3.96;69.60;99371.66;4139552;28;20245;-47
2021/12/21 05:36:01;;;;;;;8.70;7.47;;;;;;;-4.08;69.75;99362.13;4125992;28;20236;-47
2021/12/21 05:38:05;;;;;;;10.07;6.40;;;;;;;-4.02;69.47;99366.88;4127677;28;20690;-46
2021/12/21 05:40:18;;;;;;;8.97;6.70;;;;;;;-4.00;69.54;99365.75;4144459;28;20233;-47
2021/12/21 05:42:19;;;;;;;8.43;6.67;;;;;;;-4.00;69.34;99375.63;4160002;28;20212;-46
2021/12/21 05:44:23;;;;;;;7.83;7.13;;;;;;;-4.06;69.49;99377.00;4159893;28;20718;-47
2021/12/21 05:46:25;;;;;;;8.10;7.50;;;;;;;-4.09;69.70;99382.63;4172147;28;20905;-47
2021/12/21 05:48:26;;;;;;;10.40;7.27;;;;;;;-4.08;69.45;99372.78;4159085;28;20663;-47
2021/12/21 05:50:28;;;;;;;8.47;7.57;;;;;;;-4.07;69.55;99386.00;4157991;28;20602;-47
2021/12/21 05:52:30;;;;;;;7.33;6.63;;;;;;;-4.11;69.47;99395.28;4160405;28;20213;-46
2021/12/21 05:54:32;;;;;;;8.47;7.53;;;;;;;-4.10;69.44;99391.63;4161153;28;20205;-47
2021/12/21 05:56:34;;;;;;;7.80;6.87;;;;;;;-4.09;69.42;99392.47;4148195;28;20229;-47
2021/12/21 05:58:36;;;;;;;12.07;7.83;;;;;;;-4.05;69.18;99399.22;4170023;28;20208;-46
2021/12/21 06:00:38;;;;;;;8.33;7.60;;;;;;;-4.12;69.20;99393.59;4171735;28;20193;-47
2021/12/21 06:02:40;;;;;;;7.13;6.53;;;;;;;-4.14;69.27;99394.72;4173258;28;20299;-46
2021/12/21 06:04:42;;;;;;;9.67;8.77;;;;;;;-4.11;69.38;99394.44;4141603;28;20292;-47
2021/12/21 06:06:43;;;;;;;10.27;9.40;;;;;;;-4.01;68.99;99395.31;4150038;28;20842;-47
2021/12/21 06:08:47;;;;;;;14.30;9.17;;;;;;;-4.02;68.96;99389.09;4147979;28;20695;-47
2021/12/21 06:10:51;;;;;;;12.10;9.47;;;;;;;-4.11;69.44;99389.09;4139688;28;20548;-47
2021/12/21 06:25:36;;;;;;;23.50;20.27;;;;;;;-4.10;69.50;99391.63;4155759;28;20272;-47
2021/12/21 06:27:04;;;;;;;27.13;17.20;;;;;;;-4.09;69.75;99392.47;4143865;28;20208;-46
2021/12/21 06:29:06;;;;;;;23.23;13.83;;;;;;;-4.14;69.77;99397.38;4140969;28;20217;-47
2021/12/21 06:31:09;;;;;;;23.37;12.57;;;;;;;-4.17;69.71;99395.84;4143416;28;20229;-46
2021/12/21 06:33:11;;;;;;;17.80;10.93;;;;;;;-4.17;69.85;99394.97;4125186;28;20213;-47
2021/12/21 06:35:13;;;;;;;13.60;8.77;;;;;;;-4.18;69.72;99398.63;4159072;28;20193;-47
2021/12/21 06:37:15;;;;;;;14.57;11.33;;;;;;;-4.21;69.83;99396.25;4155010;28;20448;-46
2021/12/21 06:39:17;;;;;;;16.70;9.63;;;;;;;-4.26;69.62;99401.16;4144213;28;20209;-46
2021/12/21 06:41:20;;;;;;;10.57;9.67;;;;;;;-4.27;70.07;99394.94;4155147;28;20279;-46
2021/12/21 06:43:22;;;;;;;15.13;10.83;;;;;;;-4.26;70.16;99391.28;4139549;28;20260;-47
2021/12/21 06:52:22;;;;;;;16.93;7.00;;;;;;;-4.17;69.91;99394.97;4157410;28;20264;-47
2021/12/21 06:54:24;;;;;;;10.10;6.87;;;;;;;-4.17;69.89;99389.63;4172253;28;20212;-47
2021/12/21 06:56:27;;;;;;;7.87;7.17;;;;;;;-4.18;69.73;99401.31;4174151;28;20255;-47
2021/12/21 06:58:29;;;;;;;19.80;9.00;;;;;;;-4.24;69.70;99388.50;4139361;28;20205;-46
2021/12/21 07:00:31;;;;;;;10.47;8.00;;;;;;;-4.27;69.70;99388.78;4154052;28;20241;-47
2021/12/21 07:02:33;;;;;;;23.87;8.77;;;;;;;-4.28;69.78;99392.44;4156257;28;20317;-47
2021/12/21 07:04:35;;;;;;;10.37;8.93;;;;;;;-4.32;69.79;99386.53;4124005;28;20209;-46
2021/12/21 07:06:38;;;;;;;13.97;9.00;;;;;;;-4.30;69.79;99387.22;4149194;28;20806;-47
2021/12/21 07:08:51;;;;;;;9.50;8.23;;;;;;;-4.32;69.83;99393.66;4166749;28;20846;-48
2021/12/21 07:11:11;;;;;;;11.27;8.63;;;;;;;-4.33;69.66;99392.00;4167635;28;20286;-49
2021/12/21 07:18:12;;;;;;;8.97;8.10;;;;;;;-4.33;69.68;99394.66;4139923;28;20217;-47
2021/12/21 07:20:14;;;;;;;17.37;8.20;;;;;;;-4.34;69.72;99387.63;4136610;28;20312;-47
2021/12/21 07:22:16;;;;;;;15.50;8.17;;;;;;;-4.35;69.56;99391.28;4149980;28;20216;-46
2021/12/21 07:24:17;;;;;;;8.53;7.70;;;;;;;-4.35;69.79;99391.28;4154060;28;20251;-47
2021/12/21 07:26:19;;;;;;;10.97;8.83;;;;;;;-4.35;69.75;99394.78;4154026;28;20311;-46
2021/12/21 07:28:21;;;;;;;30.07;10.97;;;;;;;-4.34;69.84;99395.66;4154698;28;20262;-47
2021/12/21 07:30:23;;;;;;;10.50;9.50;;;;;;;-4.32;69.64;99401.69;4137519;28;20750;-46
2021/12/21 07:32:25;;;;;;;9.17;8.13;;;;;;;-4.35;69.66;99396.63;4170636;28;20268;-48
2021/12/21 07:34:26;;;;;;;11.70;7.97;;;;;;;-4.34;69.90;99400.97;4157837;28;20658;-47
2021/12/21 07:36:32;;;;;;;14.70;8.80;;;;;;;-4.43;69.90;99409.78;4170555;28;20230;-46
2021/12/21 07:38:34;;;;;;;10.00;9.10;;;;;;;-4.35;69.85;99396.63;4142560;28;20586;-46
2021/12/21 07:40:37;;;;;;;13.10;8.13;;;;;;;-4.26;69.76;99406.47;4140318;28;20214;-47
2021/12/21 07:42:39;;;;;;;9.07;7.23;;;;;;;-4.36;69.53;99401.13;4134222;28;20229;-46
2021/12/21 07:44:46;;;;;;;15.43;9.17;;;;;;;-4.31;69.52;99400.69;4185904;28;20199;-47
2021/12/21 07:46:48;;;;;;;16.40;8.77;;;;;;;-4.27;69.43;99391.44;4148476;28;20608;-46
2021/12/21 07:48:50;;;;;;;13.17;8.67;;;;;;;-4.09;69.12;99392.47;4171160;28;20215;-47
2021/12/21 07:50:52;;;;;;;11.03;10.10;;;;;;;-4.19;69.26;99391.59;4151378;28;20204;-47
2021/12/21 07:52:55;;;;;;;11.93;10.03;;;;;;;-4.23;69.43;99392.84;4153032;28;20701;-46
2021/12/21 07:54:57;;;;;;;11.33;10.27;;;;;;;-4.21;69.88;99404.25;4149310;28;20263;-46
2021/12/21 07:56:59;;;;;;;12.27;11.13;;;;;;;-4.21;70.00;99404.25;4151454;28;20247;-46
2021/12/21 07:59:01;;;;;;;21.77;10.53;;;;;;;-4.19;69.80;99397.78;4153836;28;20292;-48
2021/12/21 08:01:05;;;;;;;12.43;11.20;;;;;;;-4.17;70.05;99411.00;4137166;28;20309;-47
2021/12/21 08:03:07;;;;;;;11.70;10.80;;;;;;;-4.16;70.04;99412.69;4138242;28;20256;-46
2021/12/21 08:05:11;;;;;;;11.53;10.43;;;;;;;-4.15;69.76;99419.75;4152491;28;20209;-47
2021/12/21 08:07:18;;;;;;;11.00;9.80;;;;;;;-4.14;69.85;99416.91;4150811;28;20205;-47
2021/12/21 08:09:20;;;;;;;11.00;10.00;;;;;;;-4.09;69.94;99413.84;4137731;28;20197;-47
2021/12/21 08:13:40;;;;;;;12.10;10.03;;;;;;;-4.06;70.11;99418.91;4138249;28;20198;-47
2021/12/21 08:15:43;;;;;;;13.57;10.37;;;;;;;-4.06;69.75;99422.41;4167226;28;20258;-47
2021/12/21 08:17:45;;;;;;;20.90;11.57;;;;;;;-4.05;70.08;99423.28;4150313;28;20671;-46
2021/12/21 08:19:48;;;;;;;14.47;12.40;;;;;;;-4.03;69.87;99426.66;4170743;28;20212;-47
2021/12/21 08:21:49;;;;;;;16.20;11.23;;;;;;;-3.81;70.76;99426.44;4159621;28;20220;-47
2021/12/21 08:23:52;;;;;;;12.73;11.43;;;;;;;-3.19;70.31;99418.84;4127946;28;20214;-46
2021/12/21 08:25:56;;;;;;;11.70;10.77;;;;;;;-2.61;69.21;99423.13;4143614;28;20229;-47
2021/12/21 08:27:59;;;;;;;12.40;11.10;;;;;;;-2.22;68.23;99416.63;4140398;28;20651;-47
2021/12/21 08:30:04;;;;;;;15.57;9.10;;;;;;;-1.61;66.75;99415.84;4125869;28;20213;-47
2021/12/21 08:32:06;;;;;;;12.13;9.17;;;;;;;-0.63;64.37;99419.19;4139778;28;20265;-46
2021/12/21 08:34:10;;;;;;;9.98;8.80;;;;;;;-0.20;62.67;99411.06;4138657;28;20292;-47
2021/12/21 08:36:12;;;;;;;10.15;7.38;;;;;;;-0.18;62.50;99409.06;4140694;28;20233;-46
2021/12/21 08:38:16;;;;;;;19.17;8.35;;;;;;;-0.32;62.38;99423.97;4174964;28;20212;-47
2021/12/21 08:40:22;;;;;;;11.85;6.47;;;;;;;-0.32;62.66;99425.78;4157584;28;20197;-47
2021/12/21 08:42:26;;;;;;;7.68;6.82;;;;;;;-0.32;62.10;99420.41;4161216;28;20261;-48
2021/12/21 08:44:29;;;;;;;7.95;6.20;;;;;;;-0.73;62.75;99434.59;4131684;28;20233;-47
2021/12/21 08:46:31;;;;;;;9.07;6.18;;;;;;;-1.01;62.64;99430.34;4136262;28;20229;-46
2021/12/21 08:48:33;;;;;;;7.68;5.93;;;;;;;-1.49;64.12;99424.53;4173121;28;20218;-49
2021/12/21 08:50:35;;;;;;;5.13;4.47;;;;;;;-1.71;64.22;99430.31;4155980;28;20283;-47
2021/12/21 08:52:37;;;;;;;7.72;6.05;;;;;;;-1.92;65.11;99432.41;4155803;28;20300;-46
2021/12/21 08:54:38;;;;;;;9.37;6.47;;;;;;;-2.10;65.76;99423.47;4156534;28;20239;-46
2021/12/21 08:56:40;;;;;;;7.07;6.37;;;;;;;-2.22;66.26;99435.41;4154709;28;20228;-47
2021/12/21 08:58:42;;;;;;;8.50;6.63;;;;;;;-2.24;66.13;99432.84;4160318;28;20231;-46
2021/12/21 09:00:44;;;;;;;8.07;7.27;;;;;;;-2.27;66.32;99435.00;4126589;28;20304;-46
2021/12/21 09:02:46;;;;;;;9.10;7.97;;;;;;;-2.31;66.84;99436.25;4137757;28;20237;-46
2021/12/21 09:04:48;;;;;;;9.47;8.40;;;;;;;-2.32;67.24;99439.94;4151118;28;20204;-46
2021/12/21 09:06:53;;;;;;;10.77;9.70;;;;;;;-2.30;67.40;99437.94;4133544;28;20312;-46
2021/12/21 09:08:55;;;;;;;11.07;8.83;;;;;;;-2.29;67.76;99445.84;4135382;28;20275;-46
2021/12/21 09:11:03;;;;;;;13.83;9.93;;;;;;;-2.28;68.37;99444.84;4149807;28;20264;-46
2021/12/21 09:13:05;;;;;;;10.63;9.70;;;;;;;-2.15;68.26;99441.84;4137406;28;20252;-46
2021/12/21 09:15:08;;;;;;;9.77;8.83;;;;;;;-2.24;68.29;99448.06;4135045;28;22515;-46
2021/12/21 09:17:10;;;;;;;10.70;9.70;;;;;;;-2.23;68.63;99450.63;4155075;28;20212;-47
2021/12/21 09:19:12;;;;;;;10.20;9.17;;;;;;;-2.26;68.68;99450.06;4155611;28;20297;-46
2021/12/21 09:21:13;;;;;;;11.43;8.87;;;;;;;-2.12;69.13;99441.53;4126101;28;20202;-47
2021/12/21 09:23:15;;;;;;;10.50;9.60;;;;;;;-2.16;69.45;99445.50;4161750;28;20221;-46
2021/12/21 09:25:18;;;;;;;10.30;8.77;;;;;;;-2.12;69.84;99447.75;4143251;28;20236;-46
2021/12/21 09:27:19;;;;;;;8.60;7.87;;;;;;;-2.16;69.80;99435.63;4147996;28;20210;-46
2021/12/21 09:29:21;;;;;;;13.47;8.40;;;;;;;-2.10;69.93;99436.88;4175729;28;20814;-46
2021/12/21 09:31:23;;;;;;;10.60;9.27;;;;;;;-2.11;70.01;99443.22;4148853;28;20262;-46
2021/12/21 09:33:25;;;;;;;12.07;8.93;;;;;;;-2.12;70.03;99434.38;4154260;28;20675;-46
2021/12/21 09:35:27;;;;;;;10.47;8.77;;;;;;;-2.12;70.23;99441.53;4141717;28;20272;-47
2021/12/21 09:37:29;;;;;;;9.80;8.90;;;;;;;-2.09;70.24;99430.50;4142075;28;20209;-46
2021/12/21 09:39:31;;;;;;;9.40;8.50;;;;;;;-1.91;70.17;99434.09;4143069;28;20283;-47
2021/12/21 09:41:32;;;;;;;9.73;8.90;;;;;;;-1.98;70.63;99427.66;4160614;28;20240;-46
2021/12/21 09:43:34;;;;;;;9.67;8.20;;;;;;;-2.00;71.40;99421.59;4159042;28;20220;-47
2021/12/21 09:45:38;;;;;;;10.47;8.70;;;;;;;-2.00;70.88;99419.75;4139592;28;20723;-47
2021/12/21 09:47:40;;;;;;;7.63;7.00;;;;;;;-1.94;70.74;99429.06;4141051;28;20210;-47
2021/12/21 09:49:43;;;;;;;8.53;7.83;;;;;;;-1.86;70.83;99426.47;4174918;28;20204;-45
2021/12/21 09:51:45;;;;;;;8.90;7.63;;;;;;;-1.79;70.72;99433.75;4157785;28;20197;-49
2021/12/21 09:53:47;;;;;;;10.60;9.43;;;;;;;-1.79;71.07;99432.91;4140405;28;20571;-47
2021/12/21 09:55:49;;;;;;;10.20;7.60;;;;;;;-1.77;71.68;99430.91;4138656;28;20221;-47
2021/12/21 09:57:52;;;;;;;8.70;7.90;;;;;;;-1.77;71.26;99428.22;4144005;28;20245;-47
2021/12/21 09:59:55;;;;;;;9.00;7.87;;;;;;;-1.77;71.60;99436.28;4158205;28;20204;-47
2021/12/21 10:01:57;;;;;;;8.53;7.63;;;;;;;-1.57;71.44;99432.47;4143133;28;20205;-47
2021/12/21 10:03:59;;;;;;;7.67;6.93;;;;;;;-0.92;71.49;99437.47;4140643;28;20443;-47
2021/12/21 10:06:07;;;;;;;10.07;7.93;;;;;;;-0.07;69.54;99437.38;4138281;28;20233;-47
2021/12/21 10:08:15;;;;;;;8.70;7.85;;;;;;;1.37;67.09;99443.06;4137806;28;20209;-48
2021/12/21 10:10:18;;;;;;;12.00;7.57;;;;;;;2.60;65.34;99431.53;4172153;28;20211;-45
2021/12/21 10:12:28;;;;;;;8.48;7.55;;;;;;;3.34;62.85;99436.25;4143471;28;20242;-47
2021/12/21 10:14:30;;;;;;;7.40;6.72;;;;;;;4.09;61.57;99437.88;4159431;28;20212;-48
2021/12/21 10:16:31;;;;;;;9.50;8.57;;;;;;;4.70;59.52;99437.44;4141422;28;20793;-46
2021/12/21 10:18:41;;;;;;;10.27;6.18;;;;;;;4.88;56.87;99437.88;4159473;28;20299;-48
2021/12/21 10:20:46;;;;;;;12.73;6.85;;;;;;;5.50;57.52;99428.91;4160459;28;20662;-46
2021/12/21 10:22:51;;;;;;;8.73;6.95;;;;;;;6.07;54.98;99426.84;4144004;28;20295;-46
2021/12/21 10:24:53;;;;;;;10.27;9.23;;;;;;;6.34;55.02;99431.41;4144372;28;20345;-46
2021/12/21 10:27:08;;;;;;;10.10;8.13;;;;;;;6.61;53.73;99430.47;4138878;28;20868;-46
2021/12/21 10:29:13;;;;;;;10.68;7.25;;;;;;;7.27;51.75;99421.47;4153146;28;20209;-46
2021/12/21 10:31:25;;;;;;;15.30;8.02;;;;;;;7.14;51.80;99418.72;4128234;28;20815;-47
2021/12/21 10:33:28;;;;;;;8.52;7.55;;;;;;;6.93;50.25;99416.16;4157169;28;20212;-46
2021/12/21 10:35:34;;;;;;;6.95;6.30;;;;;;;7.76;50.01;99413.78;4127100;28;20222;-46
2021/12/21 10:37:39;;;;;;;7.72;6.40;;;;;;;7.75;48.84;99409.38;4141442;28;20221;-46
2021/12/21 10:39:43;;;;;;;5.00;4.50;;;;;;;8.17;49.02;99408.91;4141496;28;20229;-47
2021/12/21 10:41:45;;;;;;;6.43;4.80;;;;;;;7.84;48.52;99399.94;4139790;28;20707;-46
2021/12/21 10:44:07;;;;;;;6.65;4.72;;;;;;;7.99;48.91;99398.66;4142160;28;20233;-47
2021/12/21 10:46:10;;;;;;;6.65;5.32;;;;;;;8.20;49.35;99397.59;4175128;28;20228;-46